Time;durP1;ratioP1;P1;durP2;ratioP2;P2;SDS_P1;SDS_P2;PMS_P1;PMS_P2;Temp;Humidity;BMP_temperature;BMP_pressure;BME280_temperature;BME280_humidity;BME280_pressure;Samples;Min_cycle;Max_cycle;Signal;HPM_P1;HPM_P2
2020/12/31 00:00:03;;;;;;;;;;;26.70;41.60;;;;;;5074995;28;19966;-65
2020/12/31 00:02:29;;;;;;;;;;;26.70;41.50;;;;;;5079720;28;19958;-59
2020/12/31 00:04:54;;;;;;;;;;;26.70;41.60;;;;;;5085882;28;19920;-61
2020/12/31 00:07:20;;;;;;;;;;;26.80;41.50;;;;;;5094235;28;19908;-63
2020/12/31 00:09:45;;;;;;;;;;;26.80;41.50;;;;;;5090398;28;19955;-58
2020/12/31 00:12:12;;;;;;;;;;;26.80;41.50;;;;;;5074429;28;19915;-58
2020/12/31 00:14:37;;;;;;;;;;;26.80;41.40;;;;;;5084388;28;19923;-65
2020/12/31 00:17:03;;;;;;;;;;;26.80;41.50;;;;;;5094735;28;19908;-65
2020/12/31 00:19:28;;;;;;;;;;;26.70;41.40;;;;;;5083168;28;19920;-63
2020/12/31 00:21:54;;;;;;;;;;;26.70;41.50;;;;;;5090917;28;19919;-61
2020/12/31 00:24:19;;;;;;;;;;;26.80;41.50;;;;;;5074089;28;19924;-63
2020/12/31 00:26:46;;;;;;;;;;;26.80;41.50;;;;;;5074069;28;20320;-62
2020/12/31 00:29:12;;;;;;;;;;;26.80;41.50;;;;;;5074932;28;19920;-63
2020/12/31 00:31:37;;;;;;;;;;;26.70;41.50;;;;;;5076214;28;19935;-61
2020/12/31 00:34:03;;;;;;;;;;;26.70;41.50;;;;;;5082015;28;20285;-63
2020/12/31 00:36:29;;;;;;;;;;;26.70;41.40;;;;;;5090840;28;19912;-65
2020/12/31 00:38:54;;;;;;;;;;;26.80;41.50;;;;;;5074019;28;19909;-63
2020/12/31 00:41:20;;;;;;;;;;;26.70;42.00;;;;;;5074733;28;19912;-61
2020/12/31 00:43:46;;;;;;;;;;;26.70;41.40;;;;;;5073987;28;19915;-63
2020/12/31 00:46:11;;;;;;;;;;;26.70;41.40;;;;;;5073327;28;19920;-60
2020/12/31 00:48:37;;;;;;;;;;;26.70;41.40;;;;;;5078367;28;19912;-64
2020/12/31 00:51:02;;;;;;;;;;;26.70;41.40;;;;;;5094152;28;19962;-65
2020/12/31 00:53:28;;;;;;;;;;;26.80;41.40;;;;;;5077363;28;19974;-63
2020/12/31 00:55:53;;;;;;;;;;;26.70;41.30;;;;;;5073728;28;19912;-65
2020/12/31 00:58:19;;;;;;;;;;;26.80;41.40;;;;;;5075652;28;20282;-63
2020/12/31 01:00:44;;;;;;;;;;;26.70;41.40;;;;;;5093545;28;19908;-64
2020/12/31 01:03:09;;;;;;;;;;;26.80;41.40;;;;;;5090854;28;19927;-67
2020/12/31 01:05:35;;;;;;;;;;;26.70;41.40;;;;;;5073551;28;20398;-65
2020/12/31 01:08:00;;;;;;;;;;;26.80;41.40;;;;;;5073213;28;19956;-65
2020/12/31 01:10:26;;;;;;;;;;;26.70;41.40;;;;;;5087548;28;19913;-64
2020/12/31 01:12:51;;;;;;;;;;;26.70;41.30;;;;;;5073455;28;19908;-69
2020/12/31 01:15:17;;;;;;;;;;;26.70;41.60;;;;;;5087573;28;19912;-75
2020/12/31 01:17:42;;;;;;;;;;;26.60;41.70;;;;;;5092876;28;20293;-64
2020/12/31 01:20:08;;;;;;;;;;;26.60;41.70;;;;;;5075030;28;19912;-67
2020/12/31 01:22:34;;;;;;;;;;;26.50;42.00;;;;;;5080866;28;19916;-66
2020/12/31 01:24:59;;;;;;;;;;;26.50;41.80;;;;;;5093211;28;19927;-63
2020/12/31 01:27:24;;;;;;;;;;;26.60;41.60;;;;;;5093257;28;19912;-64
2020/12/31 01:29:50;;;;;;;;;;;26.70;41.50;;;;;;5090629;28;19916;-63
2020/12/31 01:32:15;;;;;;;;;;;26.70;41.50;;;;;;5073333;28;20232;-61
2020/12/31 01:34:41;;;;;;;;;;;26.70;41.40;;;;;;5089586;28;19916;-71
2020/12/31 01:37:06;;;;;;;;;;;26.70;41.30;;;;;;5093425;28;19955;-65
2020/12/31 01:39:32;;;;;;;;;;;26.80;41.40;;;;;;5080229;28;19958;-70
2020/12/31 01:42:04;;;;;;;;;;;26.80;41.30;;;;;;5073970;28;19958;-68
2020/12/31 01:44:29;;;;;;;;;;;26.80;41.30;;;;;;5073805;28;19990;-63
2020/12/31 01:46:56;;;;;;;;;;;26.80;41.30;;;;;;5093200;28;20346;-65
2020/12/31 01:49:21;;;;;;;;;;;26.80;41.30;;;;;;5083247;28;19916;-70
2020/12/31 01:51:47;;;;;;;;;;;26.80;41.30;;;;;;5090228;28;19908;-63
2020/12/31 01:54:14;;;;;;;;;;;26.80;41.30;;;;;;5072981;28;20067;-63
2020/12/31 01:56:39;;;;;;;;;;;26.80;41.30;;;;;;5073079;28;19961;-61
2020/12/31 01:59:05;;;;;;;;;;;26.80;41.30;;;;;;5079529;28;20003;-66
2020/12/31 02:01:30;;;;;;;;;;;26.80;41.30;;;;;;5052570;28;19909;-64
2020/12/31 02:03:56;;;;;;;;;;;26.80;41.20;;;;;;5065637;28;19912;-68
2020/12/31 02:06:22;;;;;;;;;;;26.80;41.30;;;;;;5072980;28;19912;-63
2020/12/31 02:08:48;;;;;;;;;;;26.80;41.20;;;;;;5087756;28;19912;-63
2020/12/31 02:11:14;;;;;;;;;;;26.80;41.20;;;;;;5084882;28;20397;-69
2020/12/31 02:13:39;;;;;;;;;;;26.80;41.20;;;;;;5073986;28;20325;-65
2020/12/31 02:16:05;;;;;;;;;;;26.80;41.10;;;;;;5092179;28;19915;-60
2020/12/31 02:18:30;;;;;;;;;;;26.80;41.20;;;;;;5087199;28;20359;-62
2020/12/31 02:20:56;;;;;;;;;;;26.80;41.20;;;;;;5073530;28;19919;-61
2020/12/31 02:23:21;;;;;;;;;;;26.70;41.40;;;;;;5073814;28;19924;-67
2020/12/31 02:25:47;;;;;;;;;;;26.70;41.20;;;;;;5077400;28;20265;-62
2020/12/31 02:28:12;;;;;;;;;;;26.70;41.30;;;;;;5073256;28;19920;-71
2020/12/31 02:30:37;;;;;;;;;;;26.70;41.30;;;;;;5077042;28;19908;-63
2020/12/31 02:33:03;;;;;;;;;;;26.70;41.50;;;;;;5076535;28;20290;-66
2020/12/31 02:35:29;;;;;;;;;;;26.70;41.40;;;;;;5096312;28;19961;-64
2020/12/31 02:37:54;;;;;;;;;;;26.70;41.40;;;;;;5089153;28;19919;-63
2020/12/31 02:40:19;;;;;;;;;;;26.70;41.30;;;;;;5089506;28;19919;-66
2020/12/31 02:42:45;;;;;;;;;;;26.70;41.30;;;;;;5096528;28;20499;-68
2020/12/31 02:45:10;;;;;;;;;;;26.70;41.30;;;;;;5094637;28;19930;-71
2020/12/31 02:47:38;;;;;;;;;;;26.70;41.30;;;;;;5096612;28;20419;-71
2020/12/31 02:50:03;;;;;;;;;;;26.70;41.20;;;;;;5077869;28;19916;-73
2020/12/31 02:52:29;;;;;;;;;;;26.70;41.20;;;;;;5082472;28;19920;-62
2020/12/31 02:54:54;;;;;;;;;;;26.70;41.20;;;;;;5096346;28;19912;-64
2020/12/31 02:57:20;;;;;;;;;;;26.80;41.30;;;;;;5096235;28;19995;-68
2020/12/31 02:59:45;;;;;;;;;;;26.70;41.20;;;;;;5067036;28;19917;-73
2020/12/31 03:02:10;;;;;;;;;;;26.80;41.30;;;;;;5055836;28;19917;-73
2020/12/31 03:04:36;;;;;;;;;;;26.80;41.20;;;;;;5074417;28;20483;-67
2020/12/31 03:07:01;;;;;;;;;;;26.70;41.80;;;;;;5075538;28;19919;-66
2020/12/31 03:09:27;;;;;;;;;;;26.70;41.20;;;;;;5087413;28;19919;-57
2020/12/31 03:11:52;;;;;;;;;;;26.70;41.20;;;;;;5078329;28;19912;-61
2020/12/31 03:14:18;;;;;;;;;;;26.70;41.30;;;;;;5078162;28;19920;-61
2020/12/31 03:16:43;;;;;;;;;;;26.60;41.30;;;;;;5073673;28;19917;-63
2020/12/31 03:19:09;;;;;;;;;;;26.50;41.40;;;;;;5081042;28;19912;-63
2020/12/31 03:21:34;;;;;;;;;;;26.30;40.40;;;;;;5078262;28;19912;-63
2020/12/31 03:23:59;;;;;;;;;;;26.40;40.90;;;;;;5094162;28;19912;-64
2020/12/31 03:26:25;;;;;;;;;;;26.50;40.70;;;;;;5085220;28;19912;-65
2020/12/31 03:28:50;;;;;;;;;;;26.70;40.40;;;;;;5076204;28;19990;-65
2020/12/31 03:31:16;;;;;;;;;;;26.80;40.40;;;;;;5075257;28;20386;-62
2020/12/31 03:33:41;;;;;;;;;;;26.90;39.90;;;;;;5089608;28;19920;-63
2020/12/31 03:36:07;;;;;;;;;;;26.90;39.80;;;;;;5055335;28;19908;-73
2020/12/31 03:38:32;;;;;;;;;;;26.90;39.80;;;;;;5055287;28;20362;-65
2020/12/31 03:40:58;;;;;;;;;;;27.00;39.80;;;;;;5063669;28;19912;-65
2020/12/31 03:43:23;;;;;;;;;;;27.00;39.80;;;;;;5075133;28;19912;-62
2020/12/31 03:45:48;;;;;;;;;;;27.00;39.70;;;;;;5075880;28;20011;-71
2020/12/31 03:48:14;;;;;;;;;;;27.00;39.70;;;;;;5076179;28;19913;-64
2020/12/31 03:50:39;;;;;;;;;;;27.00;39.60;;;;;;5095022;28;19908;-65
2020/12/31 03:53:05;;;;;;;;;;;27.00;39.60;;;;;;5079420;28;20286;-63
2020/12/31 03:55:31;;;;;;;;;;;26.90;39.80;;;;;;5075029;28;19952;-65
2020/12/31 03:57:56;;;;;;;;;;;26.90;39.80;;;;;;5074855;28;20278;-67
2020/12/31 04:00:22;;;;;;;;;;;26.90;40.10;;;;;;5074935;28;19921;-70
2020/12/31 04:02:47;;;;;;;;;;;26.90;40.10;;;;;;5091241;28;19916;-67
2020/12/31 04:05:13;;;;;;;;;;;27.00;40.00;;;;;;5094709;28;19917;-71
2020/12/31 04:07:38;;;;;;;;;;;27.00;39.90;;;;;;5095114;28;20440;-71
2020/12/31 04:10:04;;;;;;;;;;;27.00;39.90;;;;;;5077506;28;20270;-70
2020/12/31 04:12:29;;;;;;;;;;;27.10;39.90;;;;;;5090940;28;19920;-71
2020/12/31 04:14:55;;;;;;;;;;;27.10;39.90;;;;;;5092310;28;19991;-65
2020/12/31 04:17:20;;;;;;;;;;;27.10;39.90;;;;;;5074430;28;19909;-62
2020/12/31 04:19:46;;;;;;;;;;;27.10;39.80;;;;;;5088366;28;20379;-73
2020/12/31 04:22:11;;;;;;;;;;;27.10;39.80;;;;;;5090801;28;19916;-75
2020/12/31 04:24:37;;;;;;;;;;;27.10;39.70;;;;;;5086904;28;20050;-66
2020/12/31 04:27:02;;;;;;;;;;;27.10;39.70;;;;;;5076312;28;19912;-66
2020/12/31 04:29:28;;;;;;;;;;;27.10;39.70;;;;;;5074844;28;20379;-65
2020/12/31 04:31:53;;;;;;;;;;;27.10;39.70;;;;;;5074146;28;19908;-60
2020/12/31 04:34:19;;;;;;;;;;;27.10;39.60;;;;;;5084459;28;20304;-69
2020/12/31 04:36:44;;;;;;;;;;;27.10;39.60;;;;;;5093281;28;19908;-68
2020/12/31 04:39:09;;;;;;;;;;;27.20;39.60;;;;;;5084853;28;19912;-68
2020/12/31 04:41:35;;;;;;;;;;;27.10;39.50;;;;;;5078583;28;19912;-68
2020/12/31 04:44:02;;;;;;;;;;;27.20;39.50;;;;;;5084849;28;19920;-66
2020/12/31 04:46:27;;;;;;;;;;;27.20;39.50;;;;;;5073722;28;19912;-62
2020/12/31 04:49:11;;;;;;;;;;;27.20;39.60;;;;;;5074864;28;19917;-67
2020/12/31 04:51:37;;;;;;;;;;;27.20;39.50;;;;;;5073699;28;20366;-62
2020/12/31 04:54:06;;;;;;;;;;;27.20;39.50;;;;;;5083612;28;19920;-71
2020/12/31 04:56:33;;;;;;;;;;;27.20;39.50;;;;;;5084301;28;19922;-65
2020/12/31 04:58:58;;;;;;;;;;;27.20;39.50;;;;;;5082492;28;19920;-68
2020/12/31 05:01:24;;;;;;;;;;;27.20;39.40;;;;;;5073679;28;19916;-67
2020/12/31 05:03:49;;;;;;;;;;;27.20;39.40;;;;;;5084952;28;19912;-75
2020/12/31 05:06:15;;;;;;;;;;;27.20;39.40;;;;;;5093905;28;19916;-70
2020/12/31 05:08:41;;;;;;;;;;;27.20;39.40;;;;;;5086862;28;19943;-65
2020/12/31 05:11:06;;;;;;;;;;;27.20;39.40;;;;;;5089777;28;19970;-70
2020/12/31 05:13:41;;;;;;;;;;;27.20;39.50;;;;;;5093778;28;19908;-70
2020/12/31 05:16:06;;;;;;;;;;;27.20;39.60;;;;;;5092985;28;20017;-67
2020/12/31 05:18:32;;;;;;;;;;;27.20;39.40;;;;;;5087818;28;20366;-74
2020/12/31 05:20:58;;;;;;;;;;;27.20;39.50;;;;;;5088965;28;19909;-68
2020/12/31 05:23:24;;;;;;;;;;;27.20;39.40;;;;;;5073772;28;19917;-72
2020/12/31 05:25:49;;;;;;;;;;;27.20;39.30;;;;;;5075406;28;19939;-72
2020/12/31 05:28:24;;;;;;;;;;;27.20;39.30;;;;;;5091141;28;20366;-68
2020/12/31 05:30:50;;;;;;;;;;;27.20;39.30;;;;;;5073015;28;19920;-71
2020/12/31 05:33:24;;;;;;;;;;;27.20;39.30;;;;;;5081271;28;19908;-72
2020/12/31 05:35:50;;;;;;;;;;;27.20;39.30;;;;;;5093551;28;19912;-68
2020/12/31 05:38:22;;;;;;;;;;;27.20;39.30;;;;;;5091089;28;19915;-73
2020/12/31 05:40:59;;;;;;;;;;;27.20;39.20;;;;;;5073031;28;20385;-64
2020/12/31 05:43:25;;;;;;;;;;;27.20;39.20;;;;;;5089446;28;20021;-70
2020/12/31 05:46:06;;;;;;;;;;;27.30;39.20;;;;;;5090547;28;20049;-67
2020/12/31 05:48:31;;;;;;;;;;;27.20;39.20;;;;;;5073002;28;20313;-70
2020/12/31 05:50:57;;;;;;;;;;;27.20;39.10;;;;;;5074014;28;19908;-76
2020/12/31 05:53:23;;;;;;;;;;;27.30;39.20;;;;;;5072733;28;19959;-69
2020/12/31 05:55:51;;;;;;;;;;;27.30;39.20;;;;;;5072698;28;19909;-66
2020/12/31 05:58:17;;;;;;;;;;;27.30;39.10;;;;;;5072641;28;19935;-67
2020/12/31 06:00:43;;;;;;;;;;;27.30;39.10;;;;;;5091733;28;20370;-62
2020/12/31 06:03:08;;;;;;;;;;;27.30;39.10;;;;;;5084920;28;19909;-68
2020/12/31 06:05:33;;;;;;;;;;;27.30;39.10;;;;;;5094029;28;19920;-63
2020/12/31 06:07:59;;;;;;;;;;;27.30;39.30;;;;;;5078862;28;19913;-58
2020/12/31 06:10:25;;;;;;;;;;;27.20;39.20;;;;;;5077223;28;19923;-62
2020/12/31 06:12:51;;;;;;;;;;;27.20;39.50;;;;;;5084766;28;19912;-62
2020/12/31 06:15:24;;;;;;;;;;;27.00;39.70;;;;;;5097290;28;19908;-62
2020/12/31 06:17:49;;;;;;;;;;;27.00;39.70;;;;;;5080746;28;19920;-62
2020/12/31 06:20:15;;;;;;;;;;;27.00;39.60;;;;;;5067689;28;19916;-62
2020/12/31 06:22:55;;;;;;;;;;;27.00;39.60;;;;;;5076720;28;19909;-62
2020/12/31 06:25:41;;;;;;;;;;;27.00;39.60;;;;;;5094554;28;19920;-63
2020/12/31 06:28:06;;;;;;;;;;;27.00;39.60;;;;;;5078366;28;19920;-62
2020/12/31 06:30:32;;;;;;;;;;;27.00;39.50;;;;;;5077452;28;19916;-62
2020/12/31 06:32:59;;;;;;;;;;;27.00;39.50;;;;;;5087378;28;19909;-63
2020/12/31 06:35:25;;;;;;;;;;;27.00;39.50;;;;;;5092267;28;19913;-62
2020/12/31 06:37:55;;;;;;;;;;;26.90;39.40;;;;;;5075853;28;19909;-62
2020/12/31 06:40:23;;;;;;;;;;;27.00;39.40;;;;;;5056173;28;19913;-61
2020/12/31 06:43:05;;;;;;;;;;;27.00;39.40;;;;;;5056155;28;20363;-62
2020/12/31 06:45:31;;;;;;;;;;;26.90;39.40;;;;;;5055948;28;19920;-62
2020/12/31 06:47:57;;;;;;;;;;;26.90;39.40;;;;;;5083636;28;19916;-61
2020/12/31 06:50:22;;;;;;;;;;;26.90;39.40;;;;;;5075930;28;20057;-62
2020/12/31 06:52:47;;;;;;;;;;;26.90;39.40;;;;;;5076308;28;19916;-61
2020/12/31 06:55:25;;;;;;;;;;;26.90;39.40;;;;;;5077009;28;19916;-62
2020/12/31 06:57:51;;;;;;;;;;;26.90;39.40;;;;;;5091664;28;20365;-62
2020/12/31 07:00:27;;;;;;;;;;;26.90;39.40;;;;;;5076237;28;19912;-62
2020/12/31 07:02:53;;;;;;;;;;;26.90;39.40;;;;;;5076870;28;19912;-62
2020/12/31 07:05:19;;;;;;;;;;;26.90;39.40;;;;;;5086750;28;19920;-61
2020/12/31 07:07:45;;;;;;;;;;;26.80;39.30;;;;;;5095857;28;20369;-62
2020/12/31 07:10:10;;;;;;;;;;;26.80;39.40;;;;;;5077887;28;19952;-62
2020/12/31 07:12:36;;;;;;;;;;;26.80;39.30;;;;;;5079489;28;20003;-62
2020/12/31 07:15:02;;;;;;;;;;;26.80;39.30;;;;;;5095955;28;19912;-62
2020/12/31 07:17:32;;;;;;;;;;;26.80;39.30;;;;;;5093884;28;19920;-61
2020/12/31 07:19:58;;;;;;;;;;;26.80;39.30;;;;;;5084331;28;19912;-62
2020/12/31 07:22:26;;;;;;;;;;;26.80;39.30;;;;;;5095809;28;19909;-62
2020/12/31 07:24:52;;;;;;;;;;;26.80;39.20;;;;;;5095729;28;19977;-61
2020/12/31 07:27:24;;;;;;;;;;;26.80;39.20;;;;;;5075403;28;19970;-62
2020/12/31 07:30:16;;;;;;;;;;;26.80;39.20;;;;;;5089861;28;19919;-62
2020/12/31 07:32:54;;;;;;;;;;;26.80;39.20;;;;;;5053279;28;20371;-62
2020/12/31 07:35:20;;;;;;;;;;;26.80;39.20;;;;;;5055153;28;20375;-62
2020/12/31 07:37:49;;;;;;;;;;;26.80;39.30;;;;;;5055031;28;19916;-62
2020/12/31 07:40:25;;;;;;;;;;;26.80;39.20;;;;;;5076411;28;19913;-62
2020/12/31 07:42:50;;;;;;;;;;;26.80;39.20;;;;;;5083316;28;19966;-61
2020/12/31 07:45:16;;;;;;;;;;;26.70;39.20;;;;;;5075086;28;19920;-62
2020/12/31 07:47:41;;;;;;;;;;;26.70;39.10;;;;;;5090729;28;19920;-62
2020/12/31 07:50:07;;;;;;;;;;;26.80;39.20;;;;;;5077764;28;19917;-62
2020/12/31 07:52:32;;;;;;;;;;;26.70;39.10;;;;;;5079392;28;19912;-62
2020/12/31 07:55:01;;;;;;;;;;;26.70;39.10;;;;;;5055060;28;19908;-62
2020/12/31 07:57:26;;;;;;;;;;;26.70;39.10;;;;;;5054986;28;19909;-62
2020/12/31 07:59:52;;;;;;;;;;;26.70;39.10;;;;;;5085096;28;20331;-62
2020/12/31 08:02:17;;;;;;;;;;;26.70;39.10;;;;;;5079373;28;19919;-62
2020/12/31 08:04:43;;;;;;;;;;;26.70;39.10;;;;;;5094409;28;19912;-62
2020/12/31 08:07:15;;;;;;;;;;;26.70;39.10;;;;;;5095047;28;19908;-62
2020/12/31 08:09:40;;;;;;;;;;;26.70;39.10;;;;;;5091112;28;19912;-62
2020/12/31 08:12:08;;;;;;;;;;;26.70;39.10;;;;;;5087619;28;19913;-62
2020/12/31 08:14:40;;;;;;;;;;;26.70;39.10;;;;;;5098981;28;19908;-64
2020/12/31 08:17:05;;;;;;;;;;;26.70;39.10;;;;;;5093783;28;19912;-62
2020/12/31 08:19:31;;;;;;;;;;;26.70;39.10;;;;;;5081736;28;20003;-62
2020/12/31 08:21:57;;;;;;;;;;;26.70;39.10;;;;;;5074427;28;20313;-62
2020/12/31 08:24:23;;;;;;;;;;;26.80;39.00;;;;;;5072762;28;20363;-62
2020/12/31 08:26:55;;;;;;;;;;;26.80;38.90;;;;;;5092128;28;19914;-61
2020/12/31 08:29:21;;;;;;;;;;;26.80;38.80;;;;;;5083394;28;20259;-62
2020/12/31 08:31:47;;;;;;;;;;;26.70;38.90;;;;;;5075323;28;19919;-63
2020/12/31 08:34:13;;;;;;;;;;;26.70;39.00;;;;;;5078731;28;20282;-63
2020/12/31 08:36:38;;;;;;;;;;;26.70;38.90;;;;;;5069701;28;19909;-63
2020/12/31 08:39:08;;;;;;;;;;;26.70;38.90;;;;;;5069323;28;19915;-63
2020/12/31 08:41:33;;;;;;;;;;;26.70;38.90;;;;;;5073994;28;19909;-62
2020/12/31 08:43:59;;;;;;;;;;;26.70;38.90;;;;;;5094092;28;20065;-62
2020/12/31 08:46:24;;;;;;;;;;;26.70;38.90;;;;;;5089452;28;19921;-63
2020/12/31 08:48:53;;;;;;;;;;;26.70;38.90;;;;;;5086032;28;19913;-63
2020/12/31 08:51:18;;;;;;;;;;;26.70;38.90;;;;;;5073678;28;20358;-63
2020/12/31 08:53:48;;;;;;;;;;;26.70;38.90;;;;;;5073718;28;19995;-63
2020/12/31 08:56:14;;;;;;;;;;;26.70;38.90;;;;;;5073821;28;19920;-63
2020/12/31 08:58:39;;;;;;;;;;;26.70;38.90;;;;;;5073690;28;19908;-63
2020/12/31 09:01:04;;;;;;;;;;;26.70;39.10;;;;;;5082531;28;19963;-63
2020/12/31 09:03:30;;;;;;;;;;;26.60;39.50;;;;;;5092268;28;20273;-63
2020/12/31 09:05:59;;;;;;;;;;;26.70;38.90;;;;;;5077968;28;19975;-63
2020/12/31 09:08:27;;;;;;;;;;;26.70;38.90;;;;;;5073609;28;19915;-64
2020/12/31 09:11:03;;;;;;;;;;;26.70;38.90;;;;;;5084502;28;19963;-63
2020/12/31 09:13:32;;;;;;;;;;;26.70;38.90;;;;;;5091049;28;21140;-62
2020/12/31 09:16:11;;;;;;;;;;;26.60;38.90;;;;;;5063224;28;19916;-61
2020/12/31 09:18:36;;;;;;;;;;;26.70;38.90;;;;;;5081243;28;19913;-62
2020/12/31 09:21:02;;;;;;;;;;;26.70;38.90;;;;;;5073142;28;19919;-62
2020/12/31 09:23:27;;;;;;;;;;;26.60;38.80;;;;;;5075537;28;20014;-62
2020/12/31 09:25:53;;;;;;;;;;;26.70;38.90;;;;;;5075228;28;19944;-62
2020/12/31 09:28:18;;;;;;;;;;;26.70;38.80;;;;;;5072822;28;19975;-62
2020/12/31 09:30:44;;;;;;;;;;;26.70;38.70;;;;;;5073316;28;19939;-62
2020/12/31 09:33:11;;;;;;;;;;;26.70;38.80;;;;;;5077187;28;20003;-62
2020/12/31 09:35:36;;;;;;;;;;;26.70;38.80;;;;;;5073196;28;19909;-62
2020/12/31 09:38:02;;;;;;;;;;;26.70;38.80;;;;;;5072810;28;19913;-62
2020/12/31 09:40:28;;;;;;;;;;;26.70;38.70;;;;;;5072199;28;19916;-63
2020/12/31 09:42:53;;;;;;;;;;;26.60;38.70;;;;;;5072746;28;19963;-62
2020/12/31 09:45:19;;;;;;;;;;;26.70;38.80;;;;;;5064320;28;19925;-62
2020/12/31 09:47:44;;;;;;;;;;;26.70;38.70;;;;;;5072818;28;19908;-62
2020/12/31 09:50:10;;;;;;;;;;;26.70;38.70;;;;;;5072928;28;19908;-62
2020/12/31 09:52:36;;;;;;;;;;;26.70;38.70;;;;;;5072888;28;19908;-62
2020/12/31 09:55:01;;;;;;;;;;;26.60;38.70;;;;;;5072791;28;19908;-62
2020/12/31 09:57:27;;;;;;;;;;;26.70;38.70;;;;;;5072624;28;19915;-63
2020/12/31 09:59:52;;;;;;;;;;;26.60;38.70;;;;;;5084152;28;19912;-62
2020/12/31 10:02:18;;;;;;;;;;;26.70;38.70;;;;;;5091905;28;19908;-62
2020/12/31 10:04:43;;;;;;;;;;;26.70;38.70;;;;;;5082582;28;19923;-62
2020/12/31 10:07:09;;;;;;;;;;;26.70;38.70;;;;;;5072618;28;19912;-62
2020/12/31 10:09:34;;;;;;;;;;;26.60;38.60;;;;;;5079224;28;19941;-62
2020/12/31 10:12:00;;;;;;;;;;;26.60;38.70;;;;;;5093007;28;19908;-63
2020/12/31 10:14:25;;;;;;;;;;;26.60;38.70;;;;;;5092976;28;20285;-63
2020/12/31 10:16:51;;;;;;;;;;;26.70;38.70;;;;;;5093040;28;19915;-61
2020/12/31 10:19:16;;;;;;;;;;;26.70;38.60;;;;;;5092238;28;19966;-61
2020/12/31 10:21:48;;;;;;;;;;;26.60;38.60;;;;;;5092743;28;19912;-61
2020/12/31 10:24:14;;;;;;;;;;;26.60;38.60;;;;;;5092989;28;19914;-62
2020/12/31 10:26:39;;;;;;;;;;;26.70;38.70;;;;;;5089203;28;20010;-63
2020/12/31 10:29:04;;;;;;;;;;;26.70;38.60;;;;;;5092397;28;19949;-63
2020/12/31 10:31:30;;;;;;;;;;;26.60;38.60;;;;;;5089400;28;19916;-63
2020/12/31 10:33:55;;;;;;;;;;;26.60;38.60;;;;;;5090166;28;19912;-63
2020/12/31 10:36:21;;;;;;;;;;;26.70;38.60;;;;;;5072555;28;19909;-61
2020/12/31 10:38:46;;;;;;;;;;;26.70;38.60;;;;;;5084680;28;20278;-61
2020/12/31 10:41:12;;;;;;;;;;;26.70;38.60;;;;;;5072251;28;19952;-61
2020/12/31 10:43:37;;;;;;;;;;;26.70;38.60;;;;;;5072476;28;19908;-62
2020/12/31 10:46:03;;;;;;;;;;;26.70;38.70;;;;;;5088140;28;20483;-63
2020/12/31 10:48:28;;;;;;;;;;;26.60;38.60;;;;;;5072257;28;19919;-62
2020/12/31 10:50:57;;;;;;;;;;;26.60;38.70;;;;;;5076214;28;19912;-63
2020/12/31 10:53:22;;;;;;;;;;;26.60;38.70;;;;;;5086423;28;19923;-63
2020/12/31 10:55:48;;;;;;;;;;;26.60;38.70;;;;;;5096422;28;19908;-61
2020/12/31 10:58:13;;;;;;;;;;;26.60;38.70;;;;;;5096269;28;19908;-61
2020/12/31 11:00:39;;;;;;;;;;;26.60;38.60;;;;;;5091168;28;19912;-61
2020/12/31 11:03:04;;;;;;;;;;;26.60;38.60;;;;;;5083102;28;19912;-62
2020/12/31 11:05:29;;;;;;;;;;;26.60;38.60;;;;;;5096192;28;19916;-62
2020/12/31 11:07:55;;;;;;;;;;;26.60;38.70;;;;;;5095973;28;20320;-61
2020/12/31 11:10:20;;;;;;;;;;;26.60;38.60;;;;;;5083008;28;19920;-62
2020/12/31 11:12:46;;;;;;;;;;;26.70;38.60;;;;;;5075819;28;19931;-62
2020/12/31 11:15:11;;;;;;;;;;;26.60;38.50;;;;;;5089570;28;19986;-62
2020/12/31 11:17:37;;;;;;;;;;;26.60;38.60;;;;;;5095179;28;19912;-62
2020/12/31 11:20:03;;;;;;;;;;;26.60;38.50;;;;;;5095950;28;20251;-62
2020/12/31 11:22:28;;;;;;;;;;;26.60;38.60;;;;;;5095688;28;19965;-62
2020/12/31 11:24:54;;;;;;;;;;;26.60;38.60;;;;;;5081097;28;20322;-67
2020/12/31 11:27:19;;;;;;;;;;;26.60;38.60;;;;;;5075466;28;19920;-63
2020/12/31 11:29:45;;;;;;;;;;;26.70;39.20;;;;;;5075393;28;19909;-61
2020/12/31 11:32:10;;;;;;;;;;;26.60;38.60;;;;;;5075686;28;20050;-62
2020/12/31 11:34:35;;;;;;;;;;;26.60;38.50;;;;;;5095387;28;20412;-62
2020/12/31 11:37:01;;;;;;;;;;;26.70;38.60;;;;;;5075357;28;20006;-62
2020/12/31 11:39:27;;;;;;;;;;;26.70;38.60;;;;;;5075015;28;19908;-62
2020/12/31 11:41:56;;;;;;;;;;;26.60;38.50;;;;;;5081410;28;19918;-63
2020/12/31 11:44:22;;;;;;;;;;;26.70;38.60;;;;;;5095185;28;19912;-62
2020/12/31 11:46:49;;;;;;;;;;;26.70;38.60;;;;;;5095102;28;19912;-62
2020/12/31 11:49:15;;;;;;;;;;;26.70;38.50;;;;;;5095106;28;19914;-62
2020/12/31 11:51:40;;;;;;;;;;;26.60;38.70;;;;;;5095043;28;20336;-62
2020/12/31 11:54:06;;;;;;;;;;;26.60;38.60;;;;;;5094926;28;19918;-62
2020/12/31 11:56:31;;;;;;;;;;;26.60;38.60;;;;;;5086820;28;20321;-62
2020/12/31 11:58:57;;;;;;;;;;;26.60;38.50;;;;;;5094839;28;19914;-62
2020/12/31 12:01:22;;;;;;;;;;;26.60;38.60;;;;;;5095211;28;19945;-62
2020/12/31 12:03:48;;;;;;;;;;;26.60;38.50;;;;;;5092238;28;19958;-62
2020/12/31 12:06:13;;;;;;;;;;;26.60;38.50;;;;;;5095079;28;19923;-62
2020/12/31 12:08:40;;;;;;;;;;;26.60;38.60;;;;;;5094661;28;19908;-62
2020/12/31 12:11:05;;;;;;;;;;;26.60;38.60;;;;;;5075064;28;19958;-62
2020/12/31 12:13:31;;;;;;;;;;;26.60;38.50;;;;;;5079169;28;20007;-62
2020/12/31 12:15:56;;;;;;;;;;;26.70;38.50;;;;;;5094184;28;19916;-62
2020/12/31 12:18:23;;;;;;;;;;;26.60;38.40;;;;;;5094967;28;19920;-62
2020/12/31 12:20:49;;;;;;;;;;;26.70;38.60;;;;;;5094691;28;19915;-62
2020/12/31 12:23:15;;;;;;;;;;;26.60;38.50;;;;;;5094486;28;19954;-62
2020/12/31 12:25:40;;;;;;;;;;;26.60;38.50;;;;;;5082871;28;19916;-62
2020/12/31 12:28:05;;;;;;;;;;;26.70;38.50;;;;;;5073829;28;19950;-62
2020/12/31 12:30:31;;;;;;;;;;;26.60;38.40;;;;;;5081813;28;19912;-62
2020/12/31 12:32:57;;;;;;;;;;;26.70;38.50;;;;;;5088367;28;20266;-62
2020/12/31 12:35:22;;;;;;;;;;;26.60;38.40;;;;;;5078875;28;19999;-62
2020/12/31 12:37:48;;;;;;;;;;;26.60;38.40;;;;;;5094215;28;19915;-62
2020/12/31 12:40:13;;;;;;;;;;;26.60;38.50;;;;;;5084846;28;19912;-62
2020/12/31 12:42:39;;;;;;;;;;;26.60;38.40;;;;;;5073802;28;19909;-62
2020/12/31 12:45:05;;;;;;;;;;;26.70;38.40;;;;;;5073860;28;19961;-62
2020/12/31 12:47:34;;;;;;;;;;;26.60;38.40;;;;;;5074024;28;19908;-62
2020/12/31 12:49:59;;;;;;;;;;;26.60;38.40;;;;;;5073943;28;19909;-62
2020/12/31 12:52:25;;;;;;;;;;;26.60;39.00;;;;;;5073546;28;19931;-62
2020/12/31 12:54:50;;;;;;;;;;;26.60;38.40;;;;;;5066061;28;19913;-62
2020/12/31 12:57:16;;;;;;;;;;;26.50;38.40;;;;;;5053736;28;20358;-62
2020/12/31 12:59:41;;;;;;;;;;;26.50;38.50;;;;;;5063465;28;19913;-62
2020/12/31 13:02:06;;;;;;;;;;;26.60;38.50;;;;;;5074837;28;19923;-62
2020/12/31 13:04:32;;;;;;;;;;;26.60;38.50;;;;;;5081142;28;20332;-62
2020/12/31 13:06:57;;;;;;;;;;;26.60;38.40;;;;;;5087921;28;19926;-62
2020/12/31 13:09:26;;;;;;;;;;;26.60;38.40;;;;;;5073448;28;19935;-62
2020/12/31 13:11:52;;;;;;;;;;;26.60;38.40;;;;;;5073437;28;19915;-62
2020/12/31 13:14:17;;;;;;;;;;;26.60;38.40;;;;;;5080006;28;19912;-62
2020/12/31 13:16:43;;;;;;;;;;;26.60;38.30;;;;;;5093782;28;20419;-62
2020/12/31 13:19:08;;;;;;;;;;;26.70;38.30;;;;;;5093380;28;19950;-62
2020/12/31 13:21:33;;;;;;;;;;;26.70;38.40;;;;;;5092665;28;19922;-62
2020/12/31 13:23:59;;;;;;;;;;;26.60;38.30;;;;;;5093532;28;19908;-62
2020/12/31 13:26:24;;;;;;;;;;;26.60;38.30;;;;;;5080594;28;20397;-62
2020/12/31 13:28:52;;;;;;;;;;;26.60;38.30;;;;;;5072880;28;19921;-62
2020/12/31 13:31:17;;;;;;;;;;;26.60;38.30;;;;;;5076863;28;19918;-62
2020/12/31 13:33:43;;;;;;;;;;;26.60;38.30;;;;;;5093107;28;19912;-62
2020/12/31 13:36:10;;;;;;;;;;;26.70;38.40;;;;;;5082620;28;19970;-62
2020/12/31 13:38:35;;;;;;;;;;;26.60;38.30;;;;;;5088423;28;19915;-62
2020/12/31 13:41:01;;;;;;;;;;;26.60;38.30;;;;;;5073156;28;19908;-62
2020/12/31 13:43:26;;;;;;;;;;;26.60;38.30;;;;;;5072872;28;19978;-62
2020/12/31 13:45:51;;;;;;;;;;;26.60;38.30;;;;;;5072939;28;20011;-62
2020/12/31 13:48:17;;;;;;;;;;;26.60;38.40;;;;;;5091223;28;19916;-62
2020/12/31 13:50:42;;;;;;;;;;;26.60;38.30;;;;;;5093260;28;19912;-62
2020/12/31 13:53:08;;;;;;;;;;;26.60;38.30;;;;;;5092852;28;19912;-62
2020/12/31 13:55:33;;;;;;;;;;;26.60;38.30;;;;;;5092897;28;19965;-62
2020/12/31 13:57:59;;;;;;;;;;;26.60;38.30;;;;;;5093108;28;19967;-62
2020/12/31 14:00:24;;;;;;;;;;;26.60;38.30;;;;;;5093151;28;20393;-62
2020/12/31 14:02:50;;;;;;;;;;;26.60;38.30;;;;;;5077565;28;20270;-62
2020/12/31 14:05:15;;;;;;;;;;;26.50;38.30;;;;;;5078993;28;19985;-62
2020/12/31 14:07:41;;;;;;;;;;;26.60;38.40;;;;;;5072494;28;20275;-62
2020/12/31 14:10:06;;;;;;;;;;;26.60;38.30;;;;;;5083795;28;19919;-62